Time;durP1;ratioP1;P1;durP2;ratioP2;P2;SDS_P1;SDS_P2;PMS_P1;PMS_P2;Temp;Humidity;BMP_temperature;BMP_pressure;BME280_temperature;BME280_humidity;BME280_pressure;Samples;Min_cycle;Max_cycle;Signal;HPM_P1;HPM_P2
2024/02/08 00:01:03;;;;;;;1999.90;999.90;;;;;;;;;;5048580;28;20064;-81
2024/02/08 00:03:30;;;;;;;1999.90;999.90;;;;;;;;;;5049478;28;20045;-80
2024/02/08 00:05:56;;;;;;;1999.90;999.90;;;;;;;;;;5047436;28;20398;-80
2024/02/08 00:08:23;;;;;;;1999.90;999.90;;;;;;;;;;5049002;28;20053;-80
2024/02/08 00:10:51;;;;;;;1999.90;999.90;;;;;;;;;;5049657;28;20072;-80
2024/02/08 00:13:17;;;;;;;1999.90;999.90;;;;;;;;;;5045389;28;20060;-80
2024/02/08 00:15:44;;;;;;;1999.90;999.90;;;;;;;;;;5045644;28;20466;-81
2024/02/08 00:18:10;;;;;;;1999.90;999.90;;;;;;;;;;5049399;28;20159;-79
2024/02/08 00:20:37;;;;;;;1999.90;999.90;;;;;;;;;;5048433;28;20421;-80
2024/02/08 00:23:04;;;;;;;1999.90;999.90;;;;;;;;;;5048649;28;20518;-79
2024/02/08 00:25:30;;;;;;;1999.90;999.90;;;;;;;;;;5047218;28;20050;-80
2024/02/08 00:27:58;;;;;;;1999.90;999.90;;;;;;;;;;5048569;28;20056;-80
2024/02/08 00:30:25;;;;;;;1999.90;999.90;;;;;;;;;;5048371;28;20049;-80
2024/02/08 00:32:51;;;;;;;1999.90;999.90;;;;;;;;;;5048738;28;20067;-80
2024/02/08 00:35:19;;;;;;;1999.90;999.90;;;;;;;;;;5048678;28;20811;-80
2024/02/08 00:37:49;;;;;;;1999.90;999.90;;;;;;;;;;5047879;28;20448;-80
2024/02/08 00:40:16;;;;;;;1999.90;999.90;;;;;;;;;;5049104;28;20049;-81
2024/02/08 00:42:43;;;;;;;1999.90;999.90;;;;;;;;;;5048715;28;20040;-79
2024/02/08 00:45:11;;;;;;;1999.90;999.90;;;;;;;;;;5047821;28;20216;-80
2024/02/08 00:47:37;;;;;;;1999.90;999.90;;;;;;;;;;5047876;28;20045;-80
2024/02/08 00:50:05;;;;;;;1999.90;999.90;;;;;;;;;;5048598;28;20387;-80
2024/02/08 00:52:33;;;;;;;1999.90;999.90;;;;;;;;;;5045626;28;20055;-80
2024/02/08 00:54:59;;;;;;;1999.90;999.90;;;;;;;;;;5048001;28;20072;-80
2024/02/08 00:57:29;;;;;;;1999.90;999.90;;;;;;;;;;5049954;28;20037;-80
2024/02/08 00:59:55;;;;;;;1999.90;999.90;;;;;;;;;;5046680;28;20513;-81
2024/02/08 01:02:23;;;;;;;1999.90;999.90;;;;;;;;;;5046328;28;20052;-80
2024/02/08 01:04:50;;;;;;;1999.90;999.90;;;;;;;;;;5046850;28;20048;-80
2024/02/08 01:07:16;;;;;;;1999.90;999.90;;;;;;;;;;5048126;28;20497;-80
2024/02/08 01:09:43;;;;;;;1999.90;999.90;;;;;;;;;;5047634;28;20049;-80
2024/02/08 01:12:09;;;;;;;1999.90;999.90;;;;;;;;;;5046716;28;20513;-81
2024/02/08 01:14:36;;;;;;;1999.90;999.90;;;;;;;;;;5046186;28;20049;-80
2024/02/08 01:17:04;;;;;;;1999.90;999.90;;;;;;;;;;5047294;28;20079;-81
2024/02/08 01:19:32;;;;;;;1999.90;999.90;;;;;;;;;;5047115;28;20117;-82
2024/02/08 01:21:59;;;;;;;1999.90;999.90;;;;;;;;;;5048224;28;20053;-81
2024/02/08 01:24:28;;;;;;;1999.90;999.90;;;;;;;;;;5046628;28;20044;-81
2024/02/08 01:26:56;;;;;;;1999.90;999.90;;;;;;;;;;5045721;28;20053;-81
2024/02/08 01:29:24;;;;;;;1999.90;999.90;;;;;;;;;;5045871;28;20048;-80
2024/02/08 01:31:51;;;;;;;1999.90;999.90;;;;;;;;;;5044819;28;20123;-81
2024/02/08 01:34:17;;;;;;;1999.90;999.90;;;;;;;;;;5045774;28;20572;-81
2024/02/08 01:36:46;;;;;;;1999.90;999.90;;;;;;;;;;5048003;28;20041;-82
2024/02/08 01:39:13;;;;;;;1999.90;999.90;;;;;;;;;;5048449;28;20650;-82
2024/02/08 01:41:42;;;;;;;1999.90;999.90;;;;;;;;;;5047410;28;20080;-81
2024/02/08 01:44:12;;;;;;;1999.90;999.90;;;;;;;;;;5047191;28;20048;-80
2024/02/08 01:46:40;;;;;;;1999.90;999.90;;;;;;;;;;5047267;28;20041;-79
2024/02/08 01:49:07;;;;;;;1999.90;999.90;;;;;;;;;;5046086;28;20064;-79
2024/02/08 01:51:34;;;;;;;1999.90;999.90;;;;;;;;;;5045875;28;20143;-80
2024/02/08 01:54:02;;;;;;;1999.90;999.90;;;;;;;;;;5046918;28;20902;-78
2024/02/08 01:56:28;;;;;;;1999.90;999.90;;;;;;;;;;5047861;28;20478;-79
2024/02/08 01:58:56;;;;;;;1999.90;999.90;;;;;;;;;;5046478;28;20049;-78
2024/02/08 02:01:23;;;;;;;1999.90;999.90;;;;;;;;;;5047904;28;20072;-80
2024/02/08 02:03:49;;;;;;;1999.90;999.90;;;;;;;;;;5046713;28;20045;-79
2024/02/08 02:06:16;;;;;;;1999.90;999.90;;;;;;;;;;5046664;28;20045;-78
2024/02/08 02:08:52;;;;;;;1999.90;999.90;;;;;;;;;;5047538;28;20049;-79
2024/02/08 02:11:24;;;;;;;1999.90;999.90;;;;;;;;;;5046150;28;20045;-79
2024/02/08 02:13:51;;;;;;;1999.90;999.90;;;;;;;;;;5045648;28;20033;-79
2024/02/08 02:16:18;;;;;;;1999.90;999.90;;;;;;;;;;5044411;28;20144;-78
2024/02/08 02:18:44;;;;;;;1999.90;999.90;;;;;;;;;;5045181;28;20048;-79
2024/02/08 02:21:13;;;;;;;1999.90;999.90;;;;;;;;;;5045254;28;20084;-79
2024/02/08 02:23:41;;;;;;;1999.90;999.90;;;;;;;;;;5045535;28;20041;-79
2024/02/08 02:26:08;;;;;;;1999.90;999.90;;;;;;;;;;5045496;28;20084;-78
2024/02/08 02:28:36;;;;;;;1999.90;999.90;;;;;;;;;;5046429;28;20128;-79
2024/02/08 02:31:05;;;;;;;1999.90;999.90;;;;;;;;;;5046781;28;20053;-78
2024/02/08 02:33:34;;;;;;;1999.90;999.90;;;;;;;;;;5046398;28;20045;-77
2024/02/08 02:36:01;;;;;;;1999.90;999.90;;;;;;;;;;5046411;28;20041;-79
2024/02/08 02:38:28;;;;;;;1999.90;999.90;;;;;;;;;;5045702;28;20049;-79
2024/02/08 02:41:00;;;;;;;1999.90;999.90;;;;;;;;;;5046461;28;20480;-79
2024/02/08 02:43:27;;;;;;;1999.90;999.90;;;;;;;;;;5045880;28;20114;-79
2024/02/08 02:45:55;;;;;;;1999.90;999.90;;;;;;;;;;5046545;28;20104;-77
2024/02/08 02:48:22;;;;;;;1999.90;999.90;;;;;;;;;;5045959;28;20117;-77
2024/02/08 02:50:51;;;;;;;1999.90;999.90;;;;;;;;;;5045294;28;20045;-79
2024/02/08 02:53:18;;;;;;;1999.90;999.90;;;;;;;;;;5045157;28;20041;-81
2024/02/08 02:55:45;;;;;;;1999.90;999.90;;;;;;;;;;5045823;28;20041;-80
2024/02/08 02:58:13;;;;;;;1999.90;999.90;;;;;;;;;;5045168;28;20048;-78
2024/02/08 03:00:39;;;;;;;1999.90;999.90;;;;;;;;;;5044455;28;20049;-80
2024/02/08 03:03:12;;;;;;;1999.90;999.90;;;;;;;;;;5044504;28;20067;-79
2024/02/08 03:05:40;;;;;;;1999.90;999.90;;;;;;;;;;5044934;28;20479;-80
2024/02/08 03:08:07;;;;;;;1999.90;999.90;;;;;;;;;;5044282;28;20058;-79
2024/02/08 03:10:37;;;;;;;1999.90;999.90;;;;;;;;;;5045073;28;20140;-79
2024/02/08 03:13:04;;;;;;;1999.90;999.90;;;;;;;;;;5044172;28;20700;-78
2024/02/08 03:15:32;;;;;;;1999.90;999.90;;;;;;;;;;5044640;28;20405;-78
2024/02/08 03:18:00;;;;;;;1999.90;999.90;;;;;;;;;;5045039;28;20049;-77
2024/02/08 03:20:29;;;;;;;1999.90;999.90;;;;;;;;;;5046372;28;20643;-80
2024/02/08 03:22:56;;;;;;;1999.90;999.90;;;;;;;;;;5047050;28;20059;-81
2024/02/08 03:25:23;;;;;;;1999.90;999.90;;;;;;;;;;5045391;28;20072;-80
2024/02/08 03:27:51;;;;;;;1999.90;999.90;;;;;;;;;;5046798;28;20487;-81
2024/02/08 03:30:22;;;;;;;1999.90;999.90;;;;;;;;;;5050201;28;20107;-82
2024/02/08 03:32:51;;;;;;;1999.90;999.90;;;;;;;;;;5050633;28;20052;-81
2024/02/08 03:35:24;;;;;;;1999.90;999.90;;;;;;;;;;5048164;28;20056;-81
2024/02/08 03:37:52;;;;;;;1999.90;999.90;;;;;;;;;;5048007;28;20105;-81
2024/02/08 03:40:20;;;;;;;1999.90;999.90;;;;;;;;;;5049174;28;20087;-80
2024/02/08 03:42:48;;;;;;;1999.90;999.90;;;;;;;;;;5048766;28;20397;-80
2024/02/08 03:45:17;;;;;;;1999.90;999.90;;;;;;;;;;5049986;28;20059;-80
2024/02/08 03:47:45;;;;;;;1999.90;999.90;;;;;;;;;;5050427;28;20051;-81
2024/02/08 03:50:13;;;;;;;1999.90;999.90;;;;;;;;;;5048392;28;20041;-81
2024/02/08 03:52:40;;;;;;;1999.90;999.90;;;;;;;;;;5049159;28;20554;-80
2024/02/08 03:55:08;;;;;;;1999.90;999.90;;;;;;;;;;5049450;28;20131;-80
2024/02/08 03:57:35;;;;;;;1999.90;999.90;;;;;;;;;;5049841;28;20122;-80
2024/02/08 04:00:02;;;;;;;1999.90;999.90;;;;;;;;;;5049313;28;20060;-80
2024/02/08 04:02:30;;;;;;;1999.90;999.90;;;;;;;;;;5046526;28;20047;-80
2024/02/08 04:04:59;;;;;;;1999.90;999.90;;;;;;;;;;5048079;28;20045;-80
2024/02/08 04:07:45;;;;;;;1999.90;999.90;;;;;;;;;;5047115;28;20049;-80
2024/02/08 04:10:19;;;;;;;1999.90;999.90;;;;;;;;;;5047176;28;20056;-81
2024/02/08 04:54:09;;;;;;;1999.90;999.90;;;;;;;;;;5046079;28;20059;-80
2024/02/08 04:56:37;;;;;;;1999.90;999.90;;;;;;;;;;5041955;28;20049;-80
2024/02/08 04:59:05;;;;;;;1999.90;999.90;;;;;;;;;;5046035;28;20041;-81
2024/02/08 05:01:31;;;;;;;1999.90;999.90;;;;;;;;;;5038596;28;20049;-81
2024/02/08 05:03:59;;;;;;;1999.90;999.90;;;;;;;;;;5039862;28;20048;-80
2024/02/08 05:06:26;;;;;;;1999.90;999.90;;;;;;;;;;5042394;28;20056;-80
2024/02/08 05:08:57;;;;;;;1999.90;999.90;;;;;;;;;;5038446;28;20132;-79
2024/02/08 05:11:24;;;;;;;1999.90;999.90;;;;;;;;;;5041855;28;20053;-80
2024/02/08 05:13:52;;;;;;;1999.90;999.90;;;;;;;;;;5042674;28;20508;-79
2024/02/08 05:16:19;;;;;;;1999.90;999.90;;;;;;;;;;5037185;28;20059;-81
2024/02/08 05:18:47;;;;;;;1999.90;999.90;;;;;;;;;;5046936;28;20052;-81
2024/02/08 05:21:15;;;;;;;1999.90;999.90;;;;;;;;;;5045780;28;20053;-80
2024/02/08 05:23:42;;;;;;;1999.90;999.90;;;;;;;;;;5042962;28;20486;-80
2024/02/08 05:26:10;;;;;;;1999.90;999.90;;;;;;;;;;5037254;28;20068;-80
2024/02/08 05:28:37;;;;;;;1999.90;999.90;;;;;;;;;;5043185;28;20052;-80
2024/02/08 05:31:05;;;;;;;1999.90;999.90;;;;;;;;;;5043108;28;20057;-81
2024/02/08 05:33:33;;;;;;;1999.90;999.90;;;;;;;;;;5040454;28;20040;-82
2024/02/08 05:35:59;;;;;;;1999.90;999.90;;;;;;;;;;5049214;28;20049;-81
2024/02/08 05:38:26;;;;;;;1999.90;999.90;;;;;;;;;;5051408;28;20045;-80
2024/02/08 05:40:53;;;;;;;1999.90;999.90;;;;;;;;;;5046998;28;20063;-80
2024/02/08 05:43:28;;;;;;;1999.90;999.90;;;;;;;;;;5041998;28;20438;-79
2024/02/08 05:45:54;;;;;;;1999.90;999.90;;;;;;;;;;5039274;28;20050;-81
2024/02/08 05:48:27;;;;;;;1999.90;999.90;;;;;;;;;;5042151;28;20044;-79
2024/02/08 05:50:56;;;;;;;1999.90;999.90;;;;;;;;;;5038553;28;20072;-81
2024/02/08 05:53:24;;;;;;;1999.90;999.90;;;;;;;;;;5038911;28;20162;-79
2024/02/08 05:55:52;;;;;;;1999.90;999.90;;;;;;;;;;5044061;28;20145;-79
2024/02/08 05:58:19;;;;;;;1999.90;999.90;;;;;;;;;;5042101;28;20076;-79
2024/02/08 06:00:52;;;;;;;1999.90;999.90;;;;;;;;;;5045444;28;20041;-78
2024/02/08 06:03:27;;;;;;;1999.90;999.90;;;;;;;;;;5043434;28;20557;-79
2024/02/08 06:06:06;;;;;;;1999.90;999.90;;;;;;;;;;5052100;28;20063;-79
2024/02/08 06:08:39;;;;;;;1999.90;999.90;;;;;;;;;;5045696;28;20325;-79
2024/02/08 06:11:14;;;;;;;1999.90;999.90;;;;;;;;;;5035720;28;20392;-78
2024/02/08 06:13:41;;;;;;;1999.90;999.90;;;;;;;;;;5036444;28;20037;-80
2024/02/08 06:16:14;;;;;;;1999.90;999.90;;;;;;;;;;5042471;28;20045;-79
2024/02/08 06:18:45;;;;;;;1999.90;999.90;;;;;;;;;;5041824;28;20124;-79
2024/02/08 06:21:25;;;;;;;1999.90;999.90;;;;;;;;;;5039766;28;20054;-78
2024/02/08 06:24:00;;;;;;;1999.90;999.90;;;;;;;;;;5042155;28;20068;-79
2024/02/08 06:26:28;;;;;;;1999.90;999.90;;;;;;;;;;5041682;28;20576;-78
2024/02/08 06:28:55;;;;;;;1999.90;999.90;;;;;;;;;;5041605;28;20049;-78
2024/02/08 06:31:29;;;;;;;1999.90;999.90;;;;;;;;;;5042496;28;20563;-79
2024/02/08 06:34:27;;;;;;;1999.90;999.90;;;;;;;;;;5043635;28;20052;-79
2024/02/08 06:37:15;;;;;;;1999.90;999.90;;;;;;;;;;5048227;28;20056;-80
2024/02/08 06:39:45;;;;;;;1999.90;999.90;;;;;;;;;;5042237;28;20049;-79
2024/02/08 06:42:29;;;;;;;1999.90;999.90;;;;;;;;;;5040456;28;20134;-78
2024/02/08 06:45:24;;;;;;;1999.90;999.90;;;;;;;;;;5045453;28;20065;-78
2024/02/08 06:48:14;;;;;;;1999.90;999.90;;;;;;;;;;5044169;28;20076;-78
2024/02/08 07:37:26;;;;;;;1999.90;999.90;;;;;;;;;;5041996;28;20080;-79
2024/02/08 07:39:54;;;;;;;1999.90;999.90;;;;;;;;;;5046443;28;20049;-79
2024/02/08 07:42:29;;;;;;;1999.90;999.90;;;;;;;;;;5047317;28;20134;-80
2024/02/08 07:44:57;;;;;;;1999.90;999.90;;;;;;;;;;5045166;28;20049;-81
2024/02/08 07:47:24;;;;;;;1999.90;999.90;;;;;;;;;;5047622;28;20055;-80
2024/02/08 07:49:57;;;;;;;1999.90;999.90;;;;;;;;;;5046799;28;20041;-79
2024/02/08 07:52:24;;;;;;;1999.90;999.90;;;;;;;;;;5039600;28;20206;-79
2024/02/08 07:54:56;;;;;;;1999.90;999.90;;;;;;;;;;5042600;28;19924;-79
2024/02/08 07:57:26;;;;;;;1999.90;999.90;;;;;;;;;;5049073;28;20045;-80
2024/02/08 07:59:53;;;;;;;1999.90;999.90;;;;;;;;;;5049124;28;20082;-79
2024/02/08 08:02:23;;;;;;;1999.90;999.90;;;;;;;;;;5043948;28;20119;-79
2024/02/08 08:04:52;;;;;;;1999.90;999.90;;;;;;;;;;5050505;28;20129;-79
2024/02/08 08:07:23;;;;;;;1999.90;999.90;;;;;;;;;;5049478;28;20126;-79
2024/02/08 08:09:59;;;;;;;1999.90;999.90;;;;;;;;;;5040623;28;20037;-79
2024/02/08 08:12:29;;;;;;;1999.90;999.90;;;;;;;;;;5049206;28;20059;-80
2024/02/08 08:15:13;;;;;;;1999.90;999.90;;;;;;;;;;5045509;28;20440;-80
2024/02/08 08:17:42;;;;;;;1999.90;999.90;;;;;;;;;;5044427;28;20482;-76
2024/02/08 08:22:58;;;;;;;1999.90;999.90;;;;;;;;;;5041337;28;20587;-77
2024/02/08 08:25:44;;;;;;;1999.90;999.90;;;;;;;;;;5040525;28;20056;-77
2024/02/08 08:28:29;;;;;;;1999.90;999.90;;;;;;;;;;5042704;28;20053;-78
2024/02/08 08:31:00;;;;;;;1999.90;999.90;;;;;;;;;;5040339;28;20052;-79
2024/02/08 08:33:58;;;;;;;1999.90;999.90;;;;;;;;;;5039424;28;20045;-80
2024/02/08 08:36:28;;;;;;;1999.90;999.90;;;;;;;;;;5043036;28;20161;-79
2024/02/08 08:39:29;;;;;;;1999.90;999.90;;;;;;;;;;5042795;28;20387;-79
2024/02/08 08:41:46;;;;;;;1999.90;999.90;;;;;;;;;;5035852;28;20049;-79
2024/02/08 08:44:15;;;;;;;1999.90;999.90;;;;;;;;;;5043660;28;20052;-80
2024/02/08 08:46:44;;;;;;;1999.90;999.90;;;;;;;;;;5046391;28;20558;-80
2024/02/08 08:49:14;;;;;;;1999.90;999.90;;;;;;;;;;5051525;28;20049;-79
2024/02/08 08:51:43;;;;;;;1999.90;999.90;;;;;;;;;;5047015;28;20060;-79
2024/02/08 08:54:18;;;;;;;1999.90;999.90;;;;;;;;;;5046272;28;20056;-79
2024/02/08 08:56:49;;;;;;;1999.90;999.90;;;;;;;;;;5045385;28;20611;-81
2024/02/08 08:59:19;;;;;;;1999.90;999.90;;;;;;;;;;5046490;28;20084;-81
2024/02/08 09:01:48;;;;;;;1999.90;999.90;;;;;;;;;;5045717;28;20585;-80
2024/02/08 09:04:25;;;;;;;1999.90;999.90;;;;;;;;;;5045980;28;20052;-80
2024/02/08 09:06:52;;;;;;;1999.90;999.90;;;;;;;;;;5047809;28;20053;-79
2024/02/08 09:09:38;;;;;;;1999.90;999.90;;;;;;;;;;5046297;28;20064;-81
2024/02/08 09:12:05;;;;;;;1999.90;999.90;;;;;;;;;;5045731;28;20397;-80
2024/02/08 09:14:33;;;;;;;1999.90;999.90;;;;;;;;;;5041930;28;20056;-79
2024/02/08 09:17:00;;;;;;;1999.90;999.90;;;;;;;;;;5045954;28;20056;-79
2024/02/08 09:19:31;;;;;;;1999.90;999.90;;;;;;;;;;5052891;28;20041;-79
2024/02/08 09:21:59;;;;;;;1999.90;999.90;;;;;;;;;;5048841;28;20106;-80
2024/02/08 09:24:26;;;;;;;1999.90;999.90;;;;;;;;;;5048529;28;20048;-79
2024/02/08 09:27:01;;;;;;;1999.90;999.90;;;;;;;;;;5036511;28;20081;-81
2024/02/08 09:29:38;;;;;;;1999.90;999.90;;;;;;;;;;5037212;28;20047;-80
2024/02/08 09:32:43;;;;;;;1999.90;999.90;;;;;;;;;;5038709;28;20049;-81
2024/02/08 09:35:11;;;;;;;1999.90;999.90;;;;;;;;;;5040999;28;20041;-82
2024/02/08 09:37:39;;;;;;;1999.90;999.90;;;;;;;;;;5048939;28;20045;-81
2024/02/08 09:40:18;;;;;;;1999.90;999.90;;;;;;;;;;5045166;28;20049;-81
2024/02/08 09:42:54;;;;;;;1999.90;999.90;;;;;;;;;;5036733;28;20210;-79
2024/02/08 09:48:11;;;;;;;1999.90;999.90;;;;;;;;;;5044009;28;20057;-82
2024/02/08 09:50:47;;;;;;;1999.90;999.90;;;;;;;;;;5047312;28;20049;-83
2024/02/08 09:53:19;;;;;;;1999.90;999.90;;;;;;;;;;5042217;28;20401;-83
2024/02/08 09:55:55;;;;;;;1999.90;999.90;;;;;;;;;;5040565;28;20481;-81
2024/02/08 09:58:33;;;;;;;1999.90;999.90;;;;;;;;;;5042781;28;20060;-81
2024/02/08 10:01:00;;;;;;;1999.90;999.90;;;;;;;;;;5037566;28;20128;-81
2024/02/08 10:03:36;;;;;;;1999.90;999.90;;;;;;;;;;5039892;28;20099;-81
2024/02/08 10:06:12;;;;;;;1999.90;999.90;;;;;;;;;;5048210;28;20055;-80
2024/02/08 10:08:50;;;;;;;1999.90;999.90;;;;;;;;;;5048305;28;20071;-82
2024/02/08 10:11:24;;;;;;;1999.90;999.90;;;;;;;;;;5049445;28;20135;-81
2024/02/08 10:13:55;;;;;;;1999.90;999.90;;;;;;;;;;5044880;28;20165;-82
2024/02/08 10:16:29;;;;;;;1999.90;999.90;;;;;;;;;;5040057;28;20053;-82
2024/02/08 10:19:03;;;;;;;1999.90;999.90;;;;;;;;;;5043763;28;20049;-83
2024/02/08 10:21:30;;;;;;;1999.90;999.90;;;;;;;;;;5048950;28;20051;-82
2024/02/08 10:23:59;;;;;;;1999.90;999.90;;;;;;;;;;5051750;28;20687;-82
2024/02/08 10:26:27;;;;;;;1999.90;999.90;;;;;;;;;;5050490;28;20061;-82
2024/02/08 10:28:55;;;;;;;1999.90;999.90;;;;;;;;;;5049867;28;20069;-83
2024/02/08 10:31:24;;;;;;;1999.90;999.90;;;;;;;;;;5043978;28;20045;-82
2024/02/08 10:33:57;;;;;;;1999.90;999.90;;;;;;;;;;5046218;28;20046;-81
2024/02/08 10:36:35;;;;;;;1999.90;999.90;;;;;;;;;;5053843;28;20056;-83
2024/02/08 10:39:07;;;;;;;1999.90;999.90;;;;;;;;;;5041694;28;20045;-80
2024/02/08 10:41:44;;;;;;;1999.90;999.90;;;;;;;;;;5053057;28;20048;-82
2024/02/08 10:44:18;;;;;;;1999.90;999.90;;;;;;;;;;5044123;28;20056;-81
2024/02/08 10:46:46;;;;;;;1999.90;999.90;;;;;;;;;;5045888;28;20053;-82
2024/02/08 10:49:13;;;;;;;1999.90;999.90;;;;;;;;;;5047009;28;20052;-81
2024/02/08 10:51:43;;;;;;;1999.90;999.90;;;;;;;;;;5054190;28;20047;-81
2024/02/08 10:54:15;;;;;;;1999.90;999.90;;;;;;;;;;5052209;28;20048;-82
2024/02/08 10:56:45;;;;;;;1999.90;999.90;;;;;;;;;;5051692;28;20045;-83
2024/02/08 10:59:13;;;;;;;1999.90;999.90;;;;;;;;;;5043590;28;20158;-82
2024/02/08 11:02:00;;;;;;;1999.90;999.90;;;;;;;;;;5043480;28;20088;-83
2024/02/08 11:04:29;;;;;;;1999.90;999.90;;;;;;;;;;5038686;28;20055;-83
2024/02/08 11:07:06;;;;;;;1999.90;999.90;;;;;;;;;;5045668;28;20052;-83
2024/02/08 11:09:34;;;;;;;1999.90;999.90;;;;;;;;;;5047988;28;20132;-82
2024/02/08 11:12:05;;;;;;;1999.90;999.90;;;;;;;;;;5047926;28;20068;-83
2024/02/08 11:14:40;;;;;;;1999.90;999.90;;;;;;;;;;5046318;28;20129;-83
2024/02/08 11:17:11;;;;;;;1999.90;999.90;;;;;;;;;;5040312;28;20083;-82
2024/02/08 11:19:39;;;;;;;1999.90;999.90;;;;;;;;;;5036372;28;20049;-82
2024/02/08 11:22:34;;;;;;;1999.90;999.90;;;;;;;;;;5045678;28;20123;-83
2024/02/08 11:25:18;;;;;;;1999.90;999.90;;;;;;;;;;5042008;28;20057;-84
2024/02/08 11:27:47;;;;;;;1999.90;999.90;;;;;;;;;;5037165;28;20486;-82
2024/02/08 11:30:19;;;;;;;1999.90;999.90;;;;;;;;;;5042347;28;20389;-83
2024/02/08 11:32:56;;;;;;;1999.90;999.90;;;;;;;;;;5044415;28;20044;-81
2024/02/08 11:35:23;;;;;;;1999.90;999.90;;;;;;;;;;5040911;28;20053;-83
2024/02/08 11:37:52;;;;;;;1999.90;999.90;;;;;;;;;;5044491;28;20064;-81
2024/02/08 11:40:28;;;;;;;1999.90;999.90;;;;;;;;;;5042140;28;20045;-82
2024/02/08 11:42:59;;;;;;;1999.90;999.90;;;;;;;;;;5041017;28;20080;-82
2024/02/08 11:45:27;;;;;;;1999.90;999.90;;;;;;;;;;5042543;28;20132;-82
2024/02/08 11:47:54;;;;;;;1999.90;999.90;;;;;;;;;;5041158;28;20055;-83
2024/02/08 11:50:23;;;;;;;1999.90;999.90;;;;;;;;;;5045416;28;20494;-82
2024/02/08 11:52:57;;;;;;;1999.90;999.90;;;;;;;;;;5039939;28;20508;-82
2024/02/08 11:55:24;;;;;;;1999.90;999.90;;;;;;;;;;5040445;28;20133;-82
2024/02/08 11:57:53;;;;;;;1999.90;999.90;;;;;;;;;;5045168;28;20048;-82
2024/02/08 12:00:20;;;;;;;1999.90;999.90;;;;;;;;;;5052260;28;20064;-82
2024/02/08 12:02:56;;;;;;;1999.90;999.90;;;;;;;;;;5048263;28;20052;-81
2024/02/08 12:05:24;;;;;;;1999.90;999.90;;;;;;;;;;5042535;28;20134;-82
2024/02/08 12:07:50;;;;;;;1999.90;999.90;;;;;;;;;;5042689;28;20037;-83
2024/02/08 12:10:22;;;;;;;1999.90;999.90;;;;;;;;;;5043089;28;20486;-83
2024/02/08 12:12:53;;;;;;;1999.90;999.90;;;;;;;;;;5047495;28;20438;-81
2024/02/08 12:15:20;;;;;;;1999.90;999.90;;;;;;;;;;5044930;28;20048;-82
2024/02/08 12:17:48;;;;;;;1999.90;999.90;;;;;;;;;;5044151;28;20120;-81
2024/02/08 12:20:16;;;;;;;1999.90;999.90;;;;;;;;;;5045674;28;20141;-82
2024/02/08 12:22:43;;;;;;;1999.90;999.90;;;;;;;;;;5043936;28;20044;-82
2024/02/08 12:25:15;;;;;;;1999.90;999.90;;;;;;;;;;5052362;28;20079;-82
2024/02/08 12:27:48;;;;;;;1999.90;999.90;;;;;;;;;;5053844;28;20436;-82
2024/02/08 12:30:17;;;;;;;1999.90;999.90;;;;;;;;;;5049966;28;20053;-83
2024/02/08 12:32:44;;;;;;;1999.90;999.90;;;;;;;;;;5048934;28;20048;-82
2024/02/08 12:35:13;;;;;;;1999.90;999.90;;;;;;;;;;5041666;28;20048;-81
2024/02/08 12:37:41;;;;;;;1999.90;999.90;;;;;;;;;;5047939;28;20099;-82
2024/02/08 12:40:12;;;;;;;1999.90;999.90;;;;;;;;;;5046643;28;20121;-81
2024/02/08 12:42:39;;;;;;;1999.90;999.90;;;;;;;;;;5047036;28;20066;-82
2024/02/08 12:45:10;;;;;;;1999.90;999.90;;;;;;;;;;5038967;28;20059;-83
2024/02/08 12:47:39;;;;;;;1999.90;999.90;;;;;;;;;;5041685;28;20081;-83
2024/02/08 12:50:08;;;;;;;1999.90;999.90;;;;;;;;;;5043892;28;20489;-81
2024/02/08 12:52:34;;;;;;;1999.90;999.90;;;;;;;;;;5043107;28;20132;-82
2024/02/08 12:55:01;;;;;;;1999.90;999.90;;;;;;;;;;5041483;28;20051;-82
2024/02/08 12:57:27;;;;;;;1999.90;999.90;;;;;;;;;;5045120;28;20135;-81
2024/02/08 13:00:00;;;;;;;1999.90;999.90;;;;;;;;;;5045880;28;20059;-81
2024/02/08 13:02:33;;;;;;;1999.90;999.90;;;;;;;;;;5047030;28;20055;-83
2024/02/08 13:05:01;;;;;;;1999.90;999.90;;;;;;;;;;5039600;28;20049;-81
2024/02/08 13:07:28;;;;;;;1999.90;999.90;;;;;;;;;;5041584;28;20061;-83
2024/02/08 13:10:01;;;;;;;1999.90;999.90;;;;;;;;;;5042094;28;20054;-81
2024/02/08 13:12:28;;;;;;;1999.90;999.90;;;;;;;;;;5047197;28;20071;-81
2024/02/08 13:15:02;;;;;;;1999.90;999.90;;;;;;;;;;5051358;28;20060;-82
2024/02/08 13:17:33;;;;;;;1999.90;999.90;;;;;;;;;;5048699;28;20053;-82
2024/02/08 13:20:00;;;;;;;1999.90;999.90;;;;;;;;;;5044513;28;20057;-82
2024/02/08 13:22:30;;;;;;;1999.90;999.90;;;;;;;;;;5047459;28;20164;-82
2024/02/08 13:24:58;;;;;;;1999.90;999.90;;;;;;;;;;5051338;28;20135;-81
2024/02/08 13:27:28;;;;;;;1999.90;999.90;;;;;;;;;;5044144;28;20049;-83
2024/02/08 13:29:56;;;;;;;1999.90;999.90;;;;;;;;;;5040024;28;20049;-83
2024/02/08 13:32:27;;;;;;;1999.90;999.90;;;;;;;;;;5043911;28;20060;-84
2024/02/08 13:34:55;;;;;;;1999.90;999.90;;;;;;;;;;5044534;28;20045;-82
2024/02/08 13:37:22;;;;;;;1999.90;999.90;;;;;;;;;;5040554;28;20568;-82
2024/02/08 13:39:49;;;;;;;1999.90;999.90;;;;;;;;;;5047308;28;20099;-82
2024/02/08 13:42:19;;;;;;;1999.90;999.90;;;;;;;;;;5041388;28;20053;-82
2024/02/08 13:44:46;;;;;;;1999.90;999.90;;;;;;;;;;5045970;28;20049;-82
2024/02/08 13:47:12;;;;;;;1999.90;999.90;;;;;;;;;;5047387;28;20060;-81
2024/02/08 13:49:39;;;;;;;1999.90;999.90;;;;;;;;;;5042179;28;20053;-84
2024/02/08 13:52:07;;;;;;;1999.90;999.90;;;;;;;;;;5035027;28;20056;-85
2024/02/08 13:54:37;;;;;;;1999.90;999.90;;;;;;;;;;5041714;28;20053;-83
2024/02/08 13:57:14;;;;;;;1999.90;999.90;;;;;;;;;;5043571;28;20050;-85
2024/02/08 13:59:45;;;;;;;1999.90;999.90;;;;;;;;;;5042206;28;20160;-84
2024/02/08 14:02:15;;;;;;;1999.90;999.90;;;;;;;;;;5042805;28;20056;-87
2024/02/08 14:04:41;;;;;;;1999.90;999.90;;;;;;;;;;5041724;28;20048;-84
2024/02/08 14:07:11;;;;;;;1999.90;999.90;;;;;;;;;;5040992;28;20052;-83
2024/02/08 14:09:40;;;;;;;1999.90;999.90;;;;;;;;;;5041679;28;20053;-83
2024/02/08 14:12:08;;;;;;;1999.90;999.90;;;;;;;;;;5041598;28;20075;-85
2024/02/08 14:14:41;;;;;;;1999.90;999.90;;;;;;;;;;5042714;28;20508;-83
2024/02/08 14:17:10;;;;;;;1999.90;999.90;;;;;;;;;;5038887;28;20047;-84
2024/02/08 14:19:37;;;;;;;1999.90;999.90;;;;;;;;;;5043235;28;20569;-84
2024/02/08 14:22:06;;;;;;;1999.90;999.90;;;;;;;;;;5045061;28;20110;-82
2024/02/08 14:24:38;;;;;;;1999.90;999.90;;;;;;;;;;5044143;28;20524;-84
2024/02/08 14:27:06;;;;;;;1999.90;999.90;;;;;;;;;;5039249;28;20498;-84
2024/02/08 14:29:35;;;;;;;1999.90;999.90;;;;;;;;;;5043763;28;20041;-84
2024/02/08 14:32:03;;;;;;;1999.90;999.90;;;;;;;;;;5049957;28;20127;-84
2024/02/08 14:34:30;;;;;;;1999.90;999.90;;;;;;;;;;5048753;28;20033;-84
2024/02/08 14:36:57;;;;;;;1999.90;999.90;;;;;;;;;;5047939;28;20143;-83
2024/02/08 14:39:32;;;;;;;1999.90;999.90;;;;;;;;;;5045518;28;20083;-83
2024/02/08 14:42:01;;;;;;;1999.90;999.90;;;;;;;;;;5039757;28;20046;-83
2024/02/08 14:44:43;;;;;;;1999.90;999.90;;;;;;;;;;5040154;28;20052;-83
2024/02/08 14:47:15;;;;;;;1999.90;999.90;;;;;;;;;;5049767;28;20041;-82
2024/02/08 14:49:55;;;;;;;1999.90;999.90;;;;;;;;;;5045727;28;20048;-83
2024/02/08 14:52:26;;;;;;;1999.90;999.90;;;;;;;;;;5039824;28;20052;-83
2024/02/08 14:54:58;;;;;;;1999.90;999.90;;;;;;;;;;5035289;28;20185;-82
2024/02/08 14:57:27;;;;;;;1999.90;999.90;;;;;;;;;;5042699;28;20052;-84
2024/02/08 15:00:49;;;;;;;1999.90;999.90;;;;;;;;;;5043831;28;20053;-82
2024/02/08 15:02:43;;;;;;;;;;;;;;;;;;5042737;28;20044;-82
2024/02/08 15:05:12;;;;;;;1999.90;999.90;;;;;;;;;;5041708;28;19925;-83
2024/02/08 15:07:51;;;;;;;1999.90;999.90;;;;;;;;;;5042771;28;20120;-83
2024/02/08 15:10:20;;;;;;;1999.90;999.90;;;;;;;;;;5045819;28;20803;-84
2024/02/08 15:13:11;;;;;;;1999.90;999.90;;;;;;;;;;5046762;28;20041;-83
2024/02/08 15:15:40;;;;;;;1999.90;999.90;;;;;;;;;;5039442;28;20138;-83
2024/02/08 15:18:11;;;;;;;1999.90;999.90;;;;;;;;;;5043558;28;20127;-83
2024/02/08 15:20:44;;;;;;;1999.90;999.90;;;;;;;;;;5046971;28;20049;-83
2024/02/08 15:23:10;;;;;;;1999.90;999.90;;;;;;;;;;5044083;28;20055;-83
2024/02/08 15:25:45;;;;;;;1999.90;999.90;;;;;;;;;;5047899;28;20402;-83
2024/02/08 15:28:25;;;;;;;1999.90;999.90;;;;;;;;;;5046699;28;20096;-84
2024/02/08 15:30:55;;;;;;;1999.90;999.90;;;;;;;;;;5044065;28;20087;-83
2024/02/08 15:33:29;;;;;;;1999.90;999.90;;;;;;;;;;5045740;28;20548;-84